Time;durP1;ratioP1;P1;durP2;ratioP2;P2;SDS_P1;SDS_P2;PMS_P1;PMS_P2;Temp;Humidity;BMP_temperature;BMP_pressure;BME280_temperature;BME280_humidity;BME280_pressure;Samples;Min_cycle;Max_cycle;Signal;HPM_P1;HPM_P2
2023/07/28 00:01:27;;;;;;;15.55;11.45;;;;;;;;;;4992249;28;20253;-72
2023/07/28 00:03:52;;;;;;;16.27;11.07;;;;;;;;;;5005599;28;20192;-73
2023/07/28 00:06:17;;;;;;;19.05;11.80;;;;;;;;;;4966138;28;20256;-71
2023/07/28 00:08:43;;;;;;;15.65;11.45;;;;;;;;;;5011481;28;20193;-73
2023/07/28 00:11:13;;;;;;;17.38;11.63;;;;;;;;;;5014171;28;20282;-73
2023/07/28 00:13:38;;;;;;;19.70;11.77;;;;;;;;;;4999843;28;20193;-73
2023/07/28 00:16:05;;;;;;;16.92;12.20;;;;;;;;;;5010301;28;20191;-73
2023/07/28 00:18:30;;;;;;;17.92;11.77;;;;;;;;;;5008384;28;20256;-72
2023/07/28 00:20:55;;;;;;;21.63;12.57;;;;;;;;;;5012102;28;20289;-72
2023/07/28 00:23:21;;;;;;;19.15;12.23;;;;;;;;;;5006191;28;20187;-72
2023/07/28 00:25:46;;;;;;;19.38;12.25;;;;;;;;;;5014655;28;20182;-71
2023/07/28 00:28:11;;;;;;;21.77;12.73;;;;;;;;;;5011016;28;20245;-71
2023/07/28 00:30:37;;;;;;;19.40;13.50;;;;;;;;;;5011245;28;20313;-72
2023/07/28 00:33:02;;;;;;;22.15;13.75;;;;;;;;;;5003487;28;20565;-72
2023/07/28 00:35:27;;;;;;;21.05;14.07;;;;;;;;;;5000002;28;20195;-72
2023/07/28 00:37:53;;;;;;;21.90;13.07;;;;;;;;;;5013510;28;20312;-71
2023/07/28 00:40:18;;;;;;;20.35;13.00;;;;;;;;;;5014264;28;20214;-71
2023/07/28 00:42:45;;;;;;;18.60;13.55;;;;;;;;;;4998176;28;20272;-70
2023/07/28 00:45:10;;;;;;;18.75;13.68;;;;;;;;;;5010503;28;20222;-71
2023/07/28 00:47:36;;;;;;;18.55;12.90;;;;;;;;;;5000451;28;20241;-72
2023/07/28 00:50:02;;;;;;;19.90;12.32;;;;;;;;;;5012337;28;20705;-72
2023/07/28 00:52:28;;;;;;;17.70;12.38;;;;;;;;;;5008556;28;20187;-72
2023/07/28 00:54:53;;;;;;;17.95;12.57;;;;;;;;;;5013782;28;20221;-71
2023/07/28 00:57:19;;;;;;;20.20;12.90;;;;;;;;;;5009752;28;20202;-70
2023/07/28 00:59:45;;;;;;;19.05;12.70;;;;;;;;;;5009044;28;20262;-71
2023/07/28 01:02:11;;;;;;;18.48;12.57;;;;;;;;;;5013286;28;20278;-72
2023/07/28 01:04:37;;;;;;;17.35;11.82;;;;;;;;;;5013875;28;20266;-72
2023/07/28 01:07:02;;;;;;;17.27;12.32;;;;;;;;;;5017349;28;20646;-72
2023/07/28 01:09:36;;;;;;;17.85;13.35;;;;;;;;;;5010487;28;20601;-72
2023/07/28 01:12:07;;;;;;;17.95;11.90;;;;;;;;;;5013201;28;20344;-72
2023/07/28 01:14:32;;;;;;;15.45;12.05;;;;;;;;;;5014973;28;20194;-71
2023/07/28 01:16:58;;;;;;;21.15;13.32;;;;;;;;;;5009845;28;20213;-72
2023/07/28 01:19:24;;;;;;;22.85;13.05;;;;;;;;;;5012622;28;20211;-72
2023/07/28 01:22:03;;;;;;;19.60;12.77;;;;;;;;;;4994963;28;20187;-72
2023/07/28 01:24:35;;;;;;;24.23;13.70;;;;;;;;;;5012100;28;20369;-71
2023/07/28 01:27:01;;;;;;;21.98;13.15;;;;;;;;;;5009801;28;20202;-72
2023/07/28 01:29:27;;;;;;;18.23;13.23;;;;;;;;;;5012277;28;20191;-71
2023/07/28 01:31:52;;;;;;;20.92;14.10;;;;;;;;;;5007686;28;20318;-72
2023/07/28 01:34:17;;;;;;;22.20;14.00;;;;;;;;;;5012068;28;20264;-72
2023/07/28 01:36:43;;;;;;;23.73;14.88;;;;;;;;;;5002665;28;20646;-71
2023/07/28 01:39:08;;;;;;;21.73;14.43;;;;;;;;;;5014327;28;20214;-70
2023/07/28 01:41:34;;;;;;;22.77;15.15;;;;;;;;;;5013411;28;20222;-72
2023/07/28 01:43:59;;;;;;;23.48;15.15;;;;;;;;;;5008094;28;20190;-73
2023/07/28 01:46:24;;;;;;;24.77;15.13;;;;;;;;;;5011158;28;20281;-72
2023/07/28 01:48:50;;;;;;;23.70;15.73;;;;;;;;;;5010970;28;20241;-71
2023/07/28 01:51:15;;;;;;;25.73;16.27;;;;;;;;;;5012014;28;20541;-72
2023/07/28 01:53:41;;;;;;;23.17;15.75;;;;;;;;;;5011259;28;20636;-71
2023/07/28 01:56:06;;;;;;;25.23;15.30;;;;;;;;;;5016608;28;20197;-71
2023/07/28 01:58:31;;;;;;;25.67;16.13;;;;;;;;;;5017981;28;20210;-71
2023/07/28 02:00:57;;;;;;;26.70;16.00;;;;;;;;;;5012060;28;20195;-71
2023/07/28 02:03:22;;;;;;;29.88;17.30;;;;;;;;;;5001139;28;20224;-71
2023/07/28 02:05:48;;;;;;;27.10;16.40;;;;;;;;;;5019001;28;20649;-72
2023/07/28 02:08:14;;;;;;;28.25;17.25;;;;;;;;;;5007564;28;21466;-71
2023/07/28 02:10:39;;;;;;;25.00;16.10;;;;;;;;;;5012713;28;20195;-71
2023/07/28 02:13:04;;;;;;;27.50;17.98;;;;;;;;;;5009130;28;20194;-73
2023/07/28 02:15:30;;;;;;;26.52;16.77;;;;;;;;;;5005507;28;20561;-71
2023/07/28 02:17:55;;;;;;;29.58;17.42;;;;;;;;;;5009120;28;20305;-72
2023/07/28 02:20:21;;;;;;;26.45;17.10;;;;;;;;;;4993629;28;20206;-72
2023/07/28 02:22:46;;;;;;;30.38;17.92;;;;;;;;;;5002387;28;20533;-71
2023/07/28 02:25:12;;;;;;;32.20;18.17;;;;;;;;;;5002924;28;20418;-71
2023/07/28 02:27:38;;;;;;;25.13;17.17;;;;;;;;;;4993464;28;20299;-72
2023/07/28 02:30:05;;;;;;;28.73;17.65;;;;;;;;;;4987163;28;20199;-71
2023/07/28 02:32:31;;;;;;;31.88;17.40;;;;;;;;;;4970902;28;20183;-72
2023/07/28 02:34:56;;;;;;;27.75;17.58;;;;;;;;;;4990014;28;20598;-73
2023/07/28 02:37:22;;;;;;;27.42;17.38;;;;;;;;;;4992748;28;20206;-72
2023/07/28 02:39:47;;;;;;;34.00;17.73;;;;;;;;;;4990498;28;20211;-72
2023/07/28 02:42:13;;;;;;;26.38;17.02;;;;;;;;;;4988076;28;20213;-72
2023/07/28 02:44:38;;;;;;;28.30;17.92;;;;;;;;;;4989661;28;20663;-71
2023/07/28 02:47:04;;;;;;;30.20;18.77;;;;;;;;;;4987859;28;20195;-71
2023/07/28 02:49:30;;;;;;;29.70;18.00;;;;;;;;;;4987151;28;20246;-71
2023/07/28 02:51:55;;;;;;;32.40;18.88;;;;;;;;;;4991453;28;20211;-72
2023/07/28 02:54:23;;;;;;;27.33;18.48;;;;;;;;;;4990684;28;20666;-71
2023/07/28 02:56:49;;;;;;;34.83;19.48;;;;;;;;;;4990384;28;20630;-71
2023/07/28 02:59:14;;;;;;;32.65;19.35;;;;;;;;;;4985588;28;20239;-70
2023/07/28 03:01:39;;;;;;;28.10;19.05;;;;;;;;;;4986878;28;20203;-71
2023/07/28 03:04:06;;;;;;;28.67;18.85;;;;;;;;;;4988512;28;20250;-72
2023/07/28 03:06:31;;;;;;;31.98;18.70;;;;;;;;;;4990615;28;20196;-71
2023/07/28 03:08:58;;;;;;;31.05;18.63;;;;;;;;;;4984901;28;20206;-72
2023/07/28 03:11:23;;;;;;;30.15;19.13;;;;;;;;;;4995202;28;20198;-71
2023/07/28 03:13:49;;;;;;;35.42;19.75;;;;;;;;;;4985057;28;20192;-72
2023/07/28 03:16:14;;;;;;;30.85;19.20;;;;;;;;;;4997446;28;20192;-72
2023/07/28 03:18:40;;;;;;;30.90;18.83;;;;;;;;;;4984943;28;20519;-72
2023/07/28 03:21:05;;;;;;;32.17;17.95;;;;;;;;;;4984994;28;20207;-73
2023/07/28 03:23:30;;;;;;;33.00;19.17;;;;;;;;;;4986355;28;20956;-73
2023/07/28 03:25:56;;;;;;;30.45;19.15;;;;;;;;;;4988169;28;20227;-71
2023/07/28 03:28:21;;;;;;;27.90;18.45;;;;;;;;;;5002533;28;20229;-71
2023/07/28 03:30:46;;;;;;;28.48;18.75;;;;;;;;;;5009908;28;20199;-72
2023/07/28 03:33:12;;;;;;;28.08;18.17;;;;;;;;;;5003022;28;20196;-72
2023/07/28 03:35:37;;;;;;;29.33;17.80;;;;;;;;;;5007691;28;20194;-72
2023/07/28 03:38:03;;;;;;;27.58;17.13;;;;;;;;;;5012846;28;20293;-71
2023/07/28 03:40:28;;;;;;;33.20;18.48;;;;;;;;;;5009243;28;20606;-71
2023/07/28 03:42:53;;;;;;;31.08;18.83;;;;;;;;;;5009972;28;20537;-72
2023/07/28 03:45:19;;;;;;;30.17;18.23;;;;;;;;;;5013504;28;20661;-72
2023/07/28 03:47:44;;;;;;;27.90;18.35;;;;;;;;;;5001808;28;20301;-72
2023/07/28 03:50:10;;;;;;;31.45;19.08;;;;;;;;;;4994288;28;20201;-71
2023/07/28 03:52:35;;;;;;;27.77;17.27;;;;;;;;;;5005826;28;20254;-71
2023/07/28 03:55:01;;;;;;;30.73;18.92;;;;;;;;;;4996937;28;20210;-72
2023/07/28 03:57:26;;;;;;;33.08;18.20;;;;;;;;;;5007949;28;20197;-71
2023/07/28 03:59:52;;;;;;;30.23;17.98;;;;;;;;;;4998373;28;20306;-72
2023/07/28 04:02:17;;;;;;;32.03;18.95;;;;;;;;;;5005338;28;20273;-71
2023/07/28 04:04:42;;;;;;;29.85;17.70;;;;;;;;;;4991589;28;20225;-71
2023/07/28 04:07:08;;;;;;;30.63;18.38;;;;;;;;;;4997472;28;20203;-72
2023/07/28 04:09:33;;;;;;;32.22;18.73;;;;;;;;;;5001287;28;20673;-71
2023/07/28 04:11:59;;;;;;;33.75;18.42;;;;;;;;;;5004341;28;20190;-71
2023/07/28 04:14:24;;;;;;;31.90;18.80;;;;;;;;;;5007465;28;20195;-72
2023/07/28 04:16:49;;;;;;;33.42;19.00;;;;;;;;;;5013705;28;20761;-72
2023/07/28 04:19:15;;;;;;;35.75;19.67;;;;;;;;;;5007283;28;20215;-71
2023/07/28 04:21:40;;;;;;;35.58;18.80;;;;;;;;;;5002822;28;20203;-71
2023/07/28 04:24:07;;;;;;;33.60;19.35;;;;;;;;;;5007827;28;20226;-70
2023/07/28 04:26:33;;;;;;;31.58;18.92;;;;;;;;;;5011783;28;20712;-72
2023/07/28 04:28:58;;;;;;;33.83;18.70;;;;;;;;;;5012102;28;20222;-71
2023/07/28 04:31:24;;;;;;;31.48;20.13;;;;;;;;;;5011868;28;20202;-73
2023/07/28 04:33:49;;;;;;;33.33;18.65;;;;;;;;;;5009818;28;20202;-72
2023/07/28 04:36:14;;;;;;;34.45;19.90;;;;;;;;;;5012619;28;20225;-71
2023/07/28 04:38:40;;;;;;;36.50;20.17;;;;;;;;;;5009354;28;20281;-72
2023/07/28 04:41:05;;;;;;;31.05;19.15;;;;;;;;;;5004604;28;20219;-72
2023/07/28 04:43:30;;;;;;;33.10;19.08;;;;;;;;;;5010312;28;20230;-73
2023/07/28 04:45:56;;;;;;;30.92;18.52;;;;;;;;;;5012530;28;20237;-72
2023/07/28 04:48:21;;;;;;;33.17;17.45;;;;;;;;;;5010913;28;20194;-72
2023/07/28 04:50:47;;;;;;;33.05;17.90;;;;;;;;;;5011566;28;20191;-71
2023/07/28 04:53:12;;;;;;;32.20;18.13;;;;;;;;;;5011503;28;20239;-72
2023/07/28 04:55:38;;;;;;;31.23;17.85;;;;;;;;;;5003542;28;20661;-71
2023/07/28 04:58:03;;;;;;;31.60;18.27;;;;;;;;;;5014907;28;20198;-72
2023/07/28 05:00:28;;;;;;;32.22;18.48;;;;;;;;;;5002361;28;20191;-72
2023/07/28 05:02:54;;;;;;;31.20;17.60;;;;;;;;;;5006619;28;20274;-71
2023/07/28 05:05:20;;;;;;;28.15;17.50;;;;;;;;;;5012690;28;20190;-72
2023/07/28 05:07:45;;;;;;;29.80;18.13;;;;;;;;;;5006195;28;20202;-72
2023/07/28 05:10:10;;;;;;;35.45;17.65;;;;;;;;;;5003174;28;20195;-72
2023/07/28 05:12:36;;;;;;;30.42;17.48;;;;;;;;;;5001688;28;20201;-72
2023/07/28 05:15:01;;;;;;;31.58;17.13;;;;;;;;;;5008950;28;20236;-72
2023/07/28 05:17:26;;;;;;;30.77;18.65;;;;;;;;;;5003652;28;20682;-71
2023/07/28 05:19:52;;;;;;;30.40;18.13;;;;;;;;;;5012655;28;20254;-72
2023/07/28 05:22:17;;;;;;;33.67;18.23;;;;;;;;;;5016955;28;20199;-72
2023/07/28 05:24:44;;;;;;;31.88;17.80;;;;;;;;;;5012058;28;20194;-72
2023/07/28 05:27:10;;;;;;;32.67;17.38;;;;;;;;;;5015225;28;20226;-72
2023/07/28 05:29:35;;;;;;;26.55;17.02;;;;;;;;;;5019356;28;20182;-72
2023/07/28 05:32:01;;;;;;;29.80;18.33;;;;;;;;;;5006126;28;20274;-71
2023/07/28 05:34:26;;;;;;;31.35;18.73;;;;;;;;;;4994080;28;20669;-71
2023/07/28 05:36:52;;;;;;;35.08;18.88;;;;;;;;;;4997493;28;20202;-72
2023/07/28 05:39:17;;;;;;;33.40;17.95;;;;;;;;;;5008463;28;20215;-71
2023/07/28 05:41:42;;;;;;;32.78;18.50;;;;;;;;;;5007299;28;20179;-71
2023/07/28 05:44:08;;;;;;;34.85;19.38;;;;;;;;;;5007358;28;20192;-71
2023/07/28 05:46:33;;;;;;;32.15;19.10;;;;;;;;;;5005258;28;20661;-72
2023/07/28 05:48:59;;;;;;;34.97;19.08;;;;;;;;;;5007221;28;20194;-72
2023/07/28 05:51:25;;;;;;;29.40;17.38;;;;;;;;;;5001531;28;20246;-71
2023/07/28 05:53:50;;;;;;;36.60;20.33;;;;;;;;;;4999670;28;20193;-71
2023/07/28 05:56:16;;;;;;;31.40;19.52;;;;;;;;;;5009599;28;20273;-72
2023/07/28 05:58:41;;;;;;;33.53;18.00;;;;;;;;;;5013781;28;20221;-71
2023/07/28 06:01:07;;;;;;;36.95;19.63;;;;;;;;;;5012168;28;20631;-71
2023/07/28 06:03:32;;;;;;;36.03;20.23;;;;;;;;;;5005669;28;20260;-71
2023/07/28 06:05:58;;;;;;;36.22;20.05;;;;;;;;;;5012202;28;20198;-71
2023/07/28 06:08:23;;;;;;;34.95;20.27;;;;;;;;;;5005323;28;20190;-71
2023/07/28 06:10:49;;;;;;;36.40;20.73;;;;;;;;;;5011866;28;20187;-71
2023/07/28 06:13:14;;;;;;;33.55;19.50;;;;;;;;;;5005997;28;20234;-70
2023/07/28 06:15:40;;;;;;;35.58;19.27;;;;;;;;;;5022378;28;20239;-71
2023/07/28 06:18:05;;;;;;;31.20;19.05;;;;;;;;;;4997031;28;20587;-71
2023/07/28 06:20:31;;;;;;;31.35;19.38;;;;;;;;;;5008488;28;20234;-70
2023/07/28 06:22:56;;;;;;;39.88;19.58;;;;;;;;;;5004622;28;20191;-71
2023/07/28 06:25:22;;;;;;;31.83;18.95;;;;;;;;;;4993431;28;20188;-70
2023/07/28 06:27:47;;;;;;;30.10;18.38;;;;;;;;;;4995905;28;20234;-72
2023/07/28 06:30:13;;;;;;;30.05;17.65;;;;;;;;;;5010750;28;20262;-71
2023/07/28 06:32:38;;;;;;;31.08;18.73;;;;;;;;;;4998365;28;20199;-72
2023/07/28 06:35:06;;;;;;;29.85;18.48;;;;;;;;;;5007581;28;20639;-71
2023/07/28 06:37:32;;;;;;;29.83;18.08;;;;;;;;;;4999721;28;20202;-72
2023/07/28 06:39:58;;;;;;;32.38;17.92;;;;;;;;;;5007400;28;20219;-71
2023/07/28 06:42:24;;;;;;;29.08;18.23;;;;;;;;;;5000847;28;20245;-72
2023/07/28 06:44:52;;;;;;;31.55;18.33;;;;;;;;;;5013853;28;20653;-71
2023/07/28 06:47:18;;;;;;;26.73;16.85;;;;;;;;;;5006312;28;20245;-72
2023/07/28 06:49:43;;;;;;;28.45;16.75;;;;;;;;;;4992716;28;20187;-72
2023/07/28 06:52:09;;;;;;;30.60;17.77;;;;;;;;;;4999980;28;20632;-72
2023/07/28 06:54:34;;;;;;;28.10;16.98;;;;;;;;;;5010620;28;20194;-72
2023/07/28 06:57:00;;;;;;;25.50;15.73;;;;;;;;;;5003332;28;20194;-73
2023/07/28 06:59:25;;;;;;;23.58;15.23;;;;;;;;;;5003939;28;20373;-71
2023/07/28 07:01:51;;;;;;;25.45;15.77;;;;;;;;;;4993734;28;20191;-72
2023/07/28 07:04:16;;;;;;;24.33;15.02;;;;;;;;;;4981345;28;20355;-72
2023/07/28 07:06:42;;;;;;;22.73;14.80;;;;;;;;;;4997203;28;20205;-72
2023/07/28 07:09:07;;;;;;;27.58;16.08;;;;;;;;;;5006247;28;20205;-72
2023/07/28 07:11:33;;;;;;;22.88;14.32;;;;;;;;;;4314814;28;10000810;-71
2023/07/28 07:13:58;;;;;;;23.58;14.25;;;;;;;;;;4997761;28;20193;-72
2023/07/28 07:16:24;;;;;;;20.13;13.50;;;;;;;;;;5003741;28;20183;-72
2023/07/28 07:18:51;;;;;;;21.33;14.23;;;;;;;;;;5002608;28;20222;-73
2023/07/28 07:21:17;;;;;;;20.15;13.85;;;;;;;;;;5005292;28;20198;-73
2023/07/28 07:23:42;;;;;;;19.15;13.68;;;;;;;;;;5000684;28;20191;-73
2023/07/28 07:26:07;;;;;;;22.05;13.68;;;;;;;;;;5005589;28;20183;-71
2023/07/28 07:28:35;;;;;;;15.65;11.75;;;;;;;;;;5005447;28;20218;-72
2023/07/28 07:31:00;;;;;;;18.83;12.45;;;;;;;;;;5008248;28;20196;-72
2023/07/28 07:33:26;;;;;;;17.20;11.52;;;;;;;;;;5004993;28;20297;-71
2023/07/28 07:35:53;;;;;;;19.52;11.52;;;;;;;;;;5002638;28;20206;-72
2023/07/28 07:38:18;;;;;;;16.08;10.65;;;;;;;;;;5012054;28;20207;-72
2023/07/28 07:40:47;;;;;;;17.27;10.65;;;;;;;;;;5011409;28;20221;-72
2023/07/28 07:43:18;;;;;;;15.60;10.13;;;;;;;;;;5005558;28;20221;-72
2023/07/28 07:45:44;;;;;;;13.55;9.65;;;;;;;;;;5003557;28;20194;-72
2023/07/28 07:48:10;;;;;;;11.73;9.25;;;;;;;;;;5011374;28;20225;-72
2023/07/28 07:50:35;;;;;;;13.30;8.98;;;;;;;;;;5005426;28;20202;-72
2023/07/28 07:53:00;;;;;;;11.13;8.02;;;;;;;;;;5009052;28;20198;-73
2023/07/28 07:55:26;;;;;;;10.40;7.32;;;;;;;;;;5005397;28;20249;-73
2023/07/28 07:57:51;;;;;;;10.85;7.57;;;;;;;;;;5004371;28;20566;-72
2023/07/28 08:00:17;;;;;;;10.95;7.38;;;;;;;;;;4991836;28;20496;-73
2023/07/28 08:02:42;;;;;;;11.57;7.60;;;;;;;;;;5006665;28;20544;-72
2023/07/28 08:05:08;;;;;;;8.68;6.47;;;;;;;;;;5001195;28;20663;-73
2023/07/28 08:07:34;;;;;;;9.57;7.18;;;;;;;;;;5007133;28;20186;-72
2023/07/28 08:10:00;;;;;;;9.63;7.03;;;;;;;;;;4994019;28;20196;-71
2023/07/28 08:12:25;;;;;;;10.07;6.93;;;;;;;;;;4995871;28;20191;-73
2023/07/28 08:14:51;;;;;;;11.05;8.27;;;;;;;;;;5005295;28;20531;-72
2023/07/28 08:17:16;;;;;;;10.73;7.75;;;;;;;;;;4996551;28;20226;-73
2023/07/28 08:19:42;;;;;;;11.98;8.48;;;;;;;;;;5016131;28;20224;-71
2023/07/28 08:22:07;;;;;;;10.45;8.85;;;;;;;;;;5013306;28;20260;-71
2023/07/28 08:24:33;;;;;;;12.65;9.07;;;;;;;;;;4995999;28;20294;-72
2023/07/28 08:26:58;;;;;;;10.77;8.48;;;;;;;;;;5006602;28;20182;-72
2023/07/28 08:29:24;;;;;;;14.85;10.90;;;;;;;;;;4998260;28;20199;-72
2023/07/28 08:31:49;;;;;;;16.75;12.13;;;;;;;;;;5002724;28;20187;-71
2023/07/28 08:34:17;;;;;;;18.70;13.02;;;;;;;;;;4991360;28;20458;-72
2023/07/28 08:36:43;;;;;;;18.85;13.18;;;;;;;;;;5021441;28;20549;-71
2023/07/28 08:39:09;;;;;;;19.38;13.18;;;;;;;;;;5007691;28;20203;-71
2023/07/28 08:41:35;;;;;;;16.23;12.88;;;;;;;;;;5004310;28;20187;-70
2023/07/28 08:44:00;;;;;;;21.20;14.43;;;;;;;;;;5008737;28;20190;-73
2023/07/28 08:46:26;;;;;;;18.75;12.88;;;;;;;;;;5002084;28;20271;-71
2023/07/28 08:48:51;;;;;;;22.23;14.02;;;;;;;;;;5000828;28;20218;-73
2023/07/28 08:51:16;;;;;;;19.90;14.52;;;;;;;;;;5006663;28;20206;-72
2023/07/28 08:53:42;;;;;;;19.02;14.27;;;;;;;;;;4996636;28;20627;-72
2023/07/28 08:56:08;;;;;;;21.75;15.23;;;;;;;;;;5011954;28;20701;-72
2023/07/28 08:58:34;;;;;;;19.52;14.45;;;;;;;;;;5013547;28;20207;-71
2023/07/28 09:01:01;;;;;;;20.63;13.88;;;;;;;;;;4999771;28;20191;-72
2023/07/28 09:03:27;;;;;;;23.65;14.88;;;;;;;;;;5004211;28;20202;-72
2023/07/28 09:05:59;;;;;;;19.73;14.02;;;;;;;;;;5006526;28;20192;-71
2023/07/28 09:08:25;;;;;;;21.75;15.40;;;;;;;;;;5014724;28;20174;-73
2023/07/28 09:10:51;;;;;;;20.20;14.77;;;;;;;;;;5007076;28;20266;-72
2023/07/28 09:13:17;;;;;;;19.13;14.40;;;;;;;;;;5010551;28;20191;-72
2023/07/28 09:15:44;;;;;;;21.55;16.00;;;;;;;;;;5010908;28;20195;-73
2023/07/28 09:18:11;;;;;;;21.45;15.63;;;;;;;;;;5005029;28;20577;-72
2023/07/28 09:20:38;;;;;;;24.48;16.40;;;;;;;;;;5011690;28;20194;-72
2023/07/28 09:23:05;;;;;;;20.67;16.15;;;;;;;;;;5008786;28;20190;-72
2023/07/28 09:25:31;;;;;;;22.30;15.75;;;;;;;;;;5010206;28;20258;-72
2023/07/28 09:27:57;;;;;;;22.42;16.00;;;;;;;;;;5008101;28;20246;-72
2023/07/28 09:30:24;;;;;;;21.95;15.07;;;;;;;;;;5004048;28;20191;-72
2023/07/28 09:32:52;;;;;;;21.00;15.85;;;;;;;;;;4997908;28;20191;-72
2023/07/28 09:35:18;;;;;;;20.63;15.65;;;;;;;;;;5006356;28;20201;-73
2023/07/28 09:37:47;;;;;;;21.38;15.57;;;;;;;;;;5008136;28;21188;-72
2023/07/28 09:40:16;;;;;;;24.40;16.40;;;;;;;;;;5008143;28;20295;-72
2023/07/28 09:42:44;;;;;;;23.23;15.05;;;;;;;;;;5005181;28;20198;-72
2023/07/28 09:45:10;;;;;;;18.42;14.20;;;;;;;;;;5005307;28;20658;-72
2023/07/28 09:47:37;;;;;;;22.63;14.38;;;;;;;;;;5006202;28;20587;-73
2023/07/28 09:50:08;;;;;;;19.20;12.13;;;;;;;;;;5004909;28;20179;-72
2023/07/28 09:52:44;;;;;;;22.73;13.65;;;;;;;;;;5007071;28;20190;-73
2023/07/28 09:55:12;;;;;;;16.70;13.48;;;;;;;;;;5007301;28;20245;-72
2023/07/28 09:58:01;;;;;;;16.70;12.93;;;;;;;;;;5008282;28;20219;-72
2023/07/28 10:00:27;;;;;;;21.10;13.65;;;;;;;;;;5007690;28;20195;-72
2023/07/28 10:02:53;;;;;;;21.58;12.98;;;;;;;;;;5007459;28;20205;-72
2023/07/28 10:05:18;;;;;;;18.48;12.60;;;;;;;;;;5008067;28;20678;-72
2023/07/28 10:07:45;;;;;;;17.80;12.73;;;;;;;;;;5007302;28;20190;-73
2023/07/28 10:10:13;;;;;;;16.35;11.60;;;;;;;;;;5008393;28;20205;-72
2023/07/28 10:12:49;;;;;;;16.90;12.40;;;;;;;;;;5008694;28;20674;-70
2023/07/28 10:15:17;;;;;;;15.93;11.52;;;;;;;;;;5006655;28;20194;-71
2023/07/28 10:17:49;;;;;;;14.23;10.93;;;;;;;;;;5006218;28;20217;-70
2023/07/28 10:20:34;;;;;;;16.23;11.95;;;;;;;;;;5006085;28;20618;-71
2023/07/28 10:23:14;;;;;;;14.73;11.65;;;;;;;;;;4990712;28;20190;-71
2023/07/28 10:25:41;;;;;;;16.25;11.75;;;;;;;;;;5006339;28;20247;-73
2023/07/28 10:28:25;;;;;;;15.85;11.80;;;;;;;;;;5007448;28;20253;-72
2023/07/28 10:30:52;;;;;;;17.85;12.98;;;;;;;;;;5007940;28;20187;-71
2023/07/28 10:33:30;;;;;;;18.70;12.88;;;;;;;;;;5007909;28;20187;-71
2023/07/28 10:35:55;;;;;;;21.30;12.60;;;;;;;;;;5009796;28;20206;-72
2023/07/28 10:38:35;;;;;;;17.95;12.75;;;;;;;;;;5004008;28;20214;-72
2023/07/28 10:41:13;;;;;;;20.42;13.45;;;;;;;;;;5002321;28;20537;-72
2023/07/28 10:43:39;;;;;;;15.85;12.48;;;;;;;;;;5011301;28;20641;-72
2023/07/28 10:46:07;;;;;;;19.42;12.50;;;;;;;;;;5003914;28;20218;-72
2023/07/28 10:48:34;;;;;;;14.23;12.30;;;;;;;;;;4990913;28;20564;-71
2023/07/28 10:51:00;;;;;;;15.60;10.98;;;;;;;;;;5004166;28;20545;-71
2023/07/28 10:53:26;;;;;;;15.63;10.52;;;;;;;;;;4995428;28;20201;-72
2023/07/28 10:55:52;;;;;;;16.23;12.18;;;;;;;;;;5012672;28;20266;-72
2023/07/28 10:58:20;;;;;;;13.82;9.68;;;;;;;;;;5002884;28;20852;-70
2023/07/28 11:00:45;;;;;;;14.75;10.57;;;;;;;;;;5011340;28;20192;-71
2023/07/28 11:03:12;;;;;;;14.50;11.32;;;;;;;;;;5002145;28;20195;-71
2023/07/28 11:05:37;;;;;;;14.40;10.90;;;;;;;;;;5005368;28;20293;-71
2023/07/28 11:08:03;;;;;;;15.85;10.70;;;;;;;;;;5008713;28;20191;-71
2023/07/28 11:10:30;;;;;;;12.88;9.45;;;;;;;;;;5004930;28;20214;-71
2023/07/28 11:13:01;;;;;;;11.93;9.13;;;;;;;;;;5005310;28;20214;-72
2023/07/28 11:15:26;;;;;;;11.07;8.25;;;;;;;;;;5005692;28;20688;-71
2023/07/28 11:17:52;;;;;;;13.68;8.25;;;;;;;;;;5003186;28;20218;-72
2023/07/28 11:20:18;;;;;;;9.35;8.23;;;;;;;;;;4999857;28;20215;-70
2023/07/28 11:22:46;;;;;;;10.32;8.50;;;;;;;;;;5008343;28;20194;-73
2023/07/28 11:25:12;;;;;;;9.77;8.00;;;;;;;;;;4990993;28;20237;-71
2023/07/28 11:27:38;;;;;;;14.93;9.05;;;;;;;;;;5000710;28;20230;-71
2023/07/28 11:30:06;;;;;;;9.25;7.90;;;;;;;;;;5005950;28;20452;-77
2023/07/28 11:32:35;;;;;;;13.00;8.82;;;;;;;;;;4996023;28;20197;-72
2023/07/28 11:35:05;;;;;;;10.18;7.85;;;;;;;;;;4998325;28;20572;-72
2023/07/28 11:37:33;;;;;;;10.93;8.00;;;;;;;;;;5002562;28;20192;-73
2023/07/28 11:40:06;;;;;;;10.23;7.93;;;;;;;;;;4998588;28;20214;-71
2023/07/28 11:42:35;;;;;;;10.05;8.07;;;;;;;;;;5000849;28;20212;-71
2023/07/28 11:45:03;;;;;;;12.95;8.57;;;;;;;;;;5006142;28;20514;-72
2023/07/28 11:47:28;;;;;;;9.75;7.65;;;;;;;;;;5008663;28;20191;-72
2023/07/28 11:49:54;;;;;;;9.48;7.55;;;;;;;;;;5004874;28;20197;-72
2023/07/28 11:52:22;;;;;;;12.30;7.88;;;;;;;;;;4403749;28;10001894;-71
2023/07/28 11:54:47;;;;;;;11.02;8.82;;;;;;;;;;5001431;28;20394;-73
2023/07/28 11:57:13;;;;;;;10.90;7.82;;;;;;;;;;4999914;28;20660;-72
2023/07/28 11:59:38;;;;;;;10.50;8.15;;;;;;;;;;5005834;28;20203;-72
2023/07/28 12:02:05;;;;;;;11.05;8.25;;;;;;;;;;5002546;28;20190;-72
2023/07/28 12:04:36;;;;;;;10.93;7.30;;;;;;;;;;4993220;28;20183;-71
2023/07/28 12:07:06;;;;;;;11.15;7.63;;;;;;;;;;5009979;28;20277;-72
2023/07/28 12:09:33;;;;;;;6.95;6.00;;;;;;;;;;5013785;28;20244;-71
2023/07/28 12:12:01;;;;;;;8.02;5.68;;;;;;;;;;5015798;28;20278;-71
2023/07/28 12:14:35;;;;;;;10.75;6.30;;;;;;;;;;5012099;28;20199;-73
2023/07/28 12:17:02;;;;;;;11.50;6.30;;;;;;;;;;5000725;28;20205;-72
2023/07/28 12:19:28;;;;;;;7.05;6.07;;;;;;;;;;5011716;28;20237;-71
2023/07/28 12:21:53;;;;;;;9.52;5.60;;;;;;;;;;4996031;28;20187;-71
2023/07/28 12:24:19;;;;;;;7.80;6.03;;;;;;;;;;4991731;28;20237;-73
2023/07/28 12:26:46;;;;;;;6.60;4.75;;;;;;;;;;5013660;28;20673;-71
2023/07/28 12:29:11;;;;;;;5.72;4.13;;;;;;;;;;5009652;28;20234;-72
2023/07/28 12:31:37;;;;;;;5.63;4.13;;;;;;;;;;5009019;28;20603;-74
2023/07/28 12:34:02;;;;;;;7.68;5.30;;;;;;;;;;5007980;28;20194;-71
2023/07/28 12:36:28;;;;;;;7.18;5.38;;;;;;;;;;5012269;28;20257;-72
2023/07/28 12:38:53;;;;;;;6.50;5.10;;;;;;;;;;5014160;28;20202;-72
2023/07/28 12:41:18;;;;;;;8.18;6.05;;;;;;;;;;5013954;28;20202;-73
2023/07/28 12:43:44;;;;;;;8.50;6.38;;;;;;;;;;5002309;28;20199;-73
2023/07/28 12:46:10;;;;;;;7.38;6.32;;;;;;;;;;5014159;28;20201;-72
2023/07/28 12:48:35;;;;;;;9.02;6.18;;;;;;;;;;5014363;28;20190;-71
2023/07/28 12:51:01;;;;;;;7.38;5.78;;;;;;;;;;5015126;28;20182;-71
2023/07/28 12:53:26;;;;;;;5.32;4.72;;;;;;;;;;5008515;28;20191;-72
2023/07/28 12:55:51;;;;;;;6.53;5.20;;;;;;;;;;5009821;28;20186;-72
2023/07/28 12:58:17;;;;;;;7.20;5.50;;;;;;;;;;5012604;28;20715;-73
2023/07/28 13:00:43;;;;;;;7.38;5.05;;;;;;;;;;5012857;28;20186;-72
2023/07/28 13:03:08;;;;;;;6.97;6.13;;;;;;;;;;5006436;28;20270;-72
2023/07/28 13:05:33;;;;;;;5.53;4.90;;;;;;;;;;5006298;28;20213;-73
2023/07/28 13:07:59;;;;;;;9.73;5.40;;;;;;;;;;5013518;28;20190;-71
2023/07/28 13:10:24;;;;;;;6.90;5.68;;;;;;;;;;5005851;28;20669;-72
2023/07/28 13:12:49;;;;;;;8.00;5.50;;;;;;;;;;5015412;28;20203;-75
2023/07/28 13:15:15;;;;;;;5.35;4.85;;;;;;;;;;5024984;28;20191;-75
2023/07/28 13:17:40;;;;;;;8.32;5.97;;;;;;;;;;4999602;28;20213;-72
2023/07/28 13:20:06;;;;;;;5.60;5.03;;;;;;;;;;5013464;28;20206;-71
2023/07/28 13:22:32;;;;;;;6.05;4.90;;;;;;;;;;5021483;28;20186;-72
2023/07/28 13:24:57;;;;;;;5.88;4.80;;;;;;;;;;5004990;28;20193;-72
2023/07/28 13:27:23;;;;;;;6.68;4.85;;;;;;;;;;5013134;28;20262;-74
2023/07/28 13:29:48;;;;;;;5.88;4.70;;;;;;;;;;5026940;28;20182;-72
2023/07/28 13:32:16;;;;;;;5.20;4.30;;;;;;;;;;4996293;28;20290;-72
2023/07/28 13:34:42;;;;;;;6.50;4.47;;;;;;;;;;5007227;28;20194;-72
2023/07/28 13:37:07;;;;;;;5.80;4.35;;;;;;;;;;4993851;28;20245;-73
2023/07/28 13:39:32;;;;;;;5.40;4.45;;;;;;;;;;4994395;28;20220;-73
2023/07/28 13:41:58;;;;;;;8.48;4.50;;;;;;;;;;4986145;28;20211;-72
2023/07/28 13:44:23;;;;;;;6.25;4.80;;;;;;;;;;5005562;28;20198;-72
2023/07/28 13:46:49;;;;;;;5.80;4.65;;;;;;;;;;5009295;28;20199;-72
2023/07/28 13:49:14;;;;;;;6.65;5.30;;;;;;;;;;5012154;28;20349;-72
2023/07/28 13:51:39;;;;;;;5.65;4.97;;;;;;;;;;5013622;28;20661;-72
2023/07/28 13:54:05;;;;;;;7.93;5.07;;;;;;;;;;4996096;28;20203;-73
2023/07/28 13:56:30;;;;;;;6.47;5.45;;;;;;;;;;4999521;28;20223;-72
2023/07/28 13:58:56;;;;;;;7.97;6.22;;;;;;;;;;5003176;28;20207;-74
2023/07/28 14:01:21;;;;;;;5.82;5.22;;;;;;;;;;5013176;28;20560;-72
2023/07/28 14:03:47;;;;;;;7.13;4.82;;;;;;;;;;5011866;28;20198;-71
2023/07/28 14:06:12;;;;;;;7.53;5.75;;;;;;;;;;4992826;28;20186;-72
2023/07/28 14:08:37;;;;;;;6.60;5.40;;;;;;;;;;5001120;28;20286;-71
2023/07/28 14:11:03;;;;;;;7.80;5.00;;;;;;;;;;5008084;28;20657;-73
2023/07/28 14:13:28;;;;;;;7.88;5.85;;;;;;;;;;5003436;28;20708;-72
2023/07/28 14:15:55;;;;;;;8.82;6.03;;;;;;;;;;5012282;28;20225;-73
2023/07/28 14:18:20;;;;;;;8.00;6.30;;;;;;;;;;5009047;28;20215;-71